Latest Weather Observations for Mawson*

IDT60801

Issued at 4:05 pm EST Sunday 20 April 2014 (issued every 30 minutes, with the page automatically refreshed every 10 minutes)

About weather observations | Map of weather stations | Latest weather observations for ANT | Other Formats
Station Details ID: 300001 Name: MAWSON Lat: -67.60 Lon: 62.88 Height: 9.9 m
Data from the previous 72 hours. | See also: Recent months at Mawson*
Date/Time
EST
Temp
°C
App
Temp
°C
Dew
Point
Rel
Hum
%
Delta-T
°C
Wind Press
QNH
hPa
Press
MSL
hPa
Rain
since 9 am
mm
Dir
 
Spd
km/h
Gust
km/h
Spd
kts
Gust
kts
20/04:04pm -11.2 -20.9 -20.7 45 - SSE 32 61 17 33 992.2 - -
20/04:00pm -11.8 -21.5 -19.6 52 - SSE 32 44 17 24 992.4 992.6 -
20/03:50pm -10.4 -21.1 -21.1 41 - SSE 37 57 20 31 992.3 - -
20/03:30pm -11.6 -22.2 -19.9 50 - SSE 37 46 20 25 992.2 - -
20/03:00pm -11.7 -22.7 -19.3 53 - SSE 39 46 21 25 992.3 - -
20/02:30pm -11.5 -21.7 -19.4 52 - SSE 35 43 19 23 992.4 - -
20/02:00pm -11.2 -22.1 -18.2 56 - SSE 39 48 21 26 992.5 - -
20/01:30pm -11.1 -22.7 -17.1 61 - SE 43 52 23 28 992.3 - -
20/01:00pm -10.8 -20.5 -17.2 59 - SSE 33 41 18 22 992.4 992.6 -
20/06:00am -10.4 -25.4 -15.7 65 - SE 61 74 33 40 987.8 - -
20/05:30am -10.5 -26.2 -15.6 66 - SE 65 80 35 43 987.3 - -
20/05:00am -10.1 -25.9 -16.0 62 - SE 65 78 35 42 986.5 - -
20/04:30am -10.6 -26.7 -15.0 70 - SE 67 83 36 45 985.8 - -
20/04:02am -10.0 -26.1 -15.7 63 - SE 67 85 36 46 985.8 - -
20/04:00am -9.9 -25.7 -15.8 62 - SE 65 82 35 44 985.7 985.9 -
20/03:31am -10.0 -26.5 -15.1 66 - SE 69 87 37 47 985.3 - -
20/03:30am -10.0 -26.7 -15.7 63 - SE 70 87 38 47 985.1 - -
20/03:07am -10.2 -26.9 -15.0 68 - SE 70 89 38 48 984.4 - -
20/03:00am -10.0 -26.1 -14.9 67 - SE 67 83 36 45 984.7 - -
20/02:30am -10.7 -27.4 -15.3 69 - SE 70 89 38 48 984.3 - -
20/02:04am -10.4 -26.2 -15.7 65 - SE 65 83 35 45 984.5 - -
20/02:00am -10.3 -26.8 -15.2 67 - SE 69 83 37 45 984.3 - -
20/01:30am -10.4 -28.2 -15.3 67 - SE 76 95 41 51 983.8 - -
20/01:04am -10.7 -28.9 -14.4 74 - SE 78 96 42 52 983.1 - -
20/01:00am -10.6 -29.1 -14.3 74 - SE 80 93 43 50 982.9 983.1 -
20/12:30am -10.4 -28.2 -14.6 71 - SE 76 104 41 56 982.9 - -
20/12:01am -9.8 -27.6 -14.4 69 - SE 76 95 41 51 982.2 - -
20/12:00am -9.8 -28.0 -14.4 69 - SE 78 95 42 51 982.1 - -
 
Date/Time
EST
Temp
°C
App
Temp
°C
Dew
Point
Rel
Hum
%
Delta-T
°C
Wind Press
QNH
hPa
Press
MSL
hPa
Rain
since 9 am
mm
Dir
 
Spd
km/h
Gust
km/h
Spd
kts
Gust
kts
19/11:30pm -9.7 -26.3 -13.9 71 - SE 70 89 38 48 982.0 - -
19/11:00pm -9.6 -26.6 -14.6 67 - SE 72 91 39 49 981.8 - -
19/10:56pm -9.7 -26.1 -13.9 71 - SE 69 91 37 49 981.8 - -
19/10:30pm -9.6 -25.6 -13.5 73 - SE 67 83 36 45 981.5 - -
19/10:12pm -9.5 -23.6 -13.8 71 - ESE 57 76 31 41 981.4 - -
19/10:11pm -9.7 -23.3 -13.9 71 - ESE 54 70 29 38 981.6 - -
19/10:00pm -8.4 -24.1 -14.5 61 - SE 65 80 35 43 981.4 981.6 -
19/09:53pm -7.7 -22.7 -16.0 51 - SE 61 80 33 43 981.3 - -
19/09:30pm -8.6 -22.6 -15.1 59 - SE 56 65 30 35 981.4 - -
19/09:18pm -9.0 -23.0 -15.7 58 - SE 56 74 30 40 981.4 - -
19/09:00pm -9.2 -22.8 -14.7 64 - SE 54 65 29 35 981.2 - -
19/08:40pm -9.6 -23.6 -14.2 69 - SE 56 74 30 40 981.0 - -
19/08:30pm -9.5 -23.6 -13.8 71 - SE 57 70 31 38 980.8 - -
19/08:00pm -9.4 -24.7 -13.7 71 - SE 63 80 34 43 980.6 - -
19/07:30pm -9.0 -24.3 -14.4 65 - SE 63 78 34 42 980.4 - -
19/07:10pm -8.9 -23.1 -14.3 65 - SE 57 78 31 42 980.3 - -
19/07:00pm -9.5 -24.0 -13.8 71 - SE 59 74 32 40 980.4 980.6 -
19/06:43pm -9.3 -23.8 -13.6 71 - SE 59 78 32 42 980.4 - -
19/06:30pm -9.3 -24.2 -13.4 72 - SE 61 76 33 41 980.2 - -
19/06:00pm -8.0 -22.0 -14.6 59 - SE 56 74 30 40 980.3 - -
19/05:59pm -8.0 -22.0 -14.4 60 - SE 56 74 30 40 980.2 - -
19/05:30pm -8.4 -23.2 -12.5 72 - SE 61 74 33 40 980.2 - -
19/05:07pm -7.8 -22.7 -14.2 60 - SE 61 83 33 45 979.3 - -
19/05:00pm -7.6 -21.8 -15.0 55 - SE 57 72 31 39 979.7 - -
19/04:31pm -7.8 -22.4 -15.0 56 - SE 59 78 32 42 979.5 - -
19/04:30pm -7.7 -22.7 -14.9 56 - SE 61 78 33 42 979.6 - -
19/04:20pm -7.5 -21.2 -15.6 52 - SE 54 72 29 39 979.5 - -
19/04:14pm -7.8 -22.0 -15.2 55 - SE 57 61 31 33 979.5 - -
19/04:01pm -7.5 -18.4 -16.6 48 - SE 39 59 21 32 979.9 - -
19/04:00pm -7.4 -17.9 -16.5 48 - SE 37 48 20 26 980.0 980.2 -
19/03:57pm -7.4 -18.3 -16.5 48 - SE 39 46 21 25 980.2 - -
19/03:55pm -7.1 -21.8 -17.2 44 - SE 59 70 32 38 979.8 - -
19/03:53pm -7.6 -17.7 -16.2 50 - SE 35 56 19 30 979.9 - -
19/03:30pm -8.0 -18.8 -15.2 56 - SE 39 50 21 27 979.9 - -
19/03:00pm -7.9 -17.9 -15.3 55 - SE 35 44 19 24 979.8 - -
19/02:30pm -8.0 -19.7 -15.2 56 - SE 44 52 24 28 979.5 - -
19/02:00pm -8.2 -19.7 -14.4 61 - SE 43 50 23 27 979.2 - -
19/01:39pm -8.2 -19.8 -13.4 66 - SE 44 63 24 34 978.1 - -
19/01:30pm -8.1 -20.2 -14.5 60 - SE 46 59 25 32 978.3 - -
19/01:00pm -8.0 -19.7 -14.2 61 - SE 44 57 24 31 978.0 978.1 -
19/12:30pm -8.0 -20.0 -13.8 63 - ESE 46 57 25 31 977.7 - -
19/12:00pm -7.6 -20.0 -13.6 62 - SE 48 69 26 37 977.1 - -
19/11:56am -8.0 -19.4 -13.2 66 - SE 43 69 23 37 977.0 - -
19/11:30am -7.9 -17.9 -14.3 60 - ESE 35 48 19 26 977.3 - -
19/11:00am -7.8 -19.5 -14.0 61 - ESE 44 72 24 39 977.0 - -
19/10:51am -7.8 -21.0 -13.6 63 - SE 52 72 28 39 976.5 - -
19/10:34am -7.6 -16.2 -14.0 60 - ESE 28 50 15 27 976.2 - -
19/10:30am -7.2 -14.7 -14.5 56 - ESE 22 32 12 17 976.5 - -
19/10:17am -6.7 -18.3 -13.3 59 - ESE 44 76 24 41 975.7 - -
19/10:12am -7.9 -17.9 -13.9 62 - ESE 35 57 19 31 976.0 - -
19/10:02am -7.4 -18.9 -13.6 61 - ESE 43 50 23 27 975.3 - -
19/10:00am -7.3 -16.9 -13.7 60 - SSE 33 56 18 30 975.4 975.5 -
19/09:59am -6.7 -16.1 -14.7 53 - SSE 32 54 17 29 975.6 - -
19/09:56am -7.1 -16.5 -15.0 53 - SSE 32 35 17 19 975.5 - -
19/09:50am -6.6 -18.1 -14.8 52 - ESE 43 61 23 33 975.1 - -
19/09:36am -7.5 -19.5 -13.7 61 - ESE 46 54 25 29 974.9 - -
19/09:31am -5.9 -17.4 -15.1 48 - SE 43 67 23 36 974.5 - -
19/09:30am -6.4 -19.3 -15.6 48 - SE 50 67 27 36 974.6 - -
19/09:29am -6.8 -16.1 -13.0 61 - ESE 32 61 17 33 975.3 - -
19/09:23am -7.8 -20.9 -12.7 68 - E 52 63 28 34 975.2 - -
19/09:00am -6.7 -19.8 -13.1 60 - SE 52 74 28 40 973.8 - -
19/08:48am -6.5 -20.4 -13.2 59 - SE 56 91 30 49 973.6 - -
19/08:30am -6.3 -18.3 -13.8 55 - SE 46 70 25 38 973.9 - -
19/08:18am -6.8 -18.2 -13.4 59 - SE 43 61 23 33 974.0 - -
19/08:15am -7.0 -17.3 -13.4 60 - SE 37 50 20 27 974.1 - -
19/08:00am -6.7 -20.7 -12.0 66 - SE 57 89 31 48 973.9 - -
19/07:30am -7.8 -21.8 -12.1 71 - SSE 57 80 31 43 973.3 - -
19/07:09am -7.9 -23.8 -12.0 72 - SSE 67 85 36 46 972.7 - -
19/07:06am -7.5 -24.4 -11.7 72 - SSE 72 85 39 46 972.5 - -
19/07:00am -7.6 -20.3 -11.6 73 - SE 50 85 27 46 972.3 972.4 -
19/06:30am -7.7 -20.7 -11.3 75 - SE 52 74 28 40 972.5 - -
19/06:26am -7.9 -21.6 -10.7 80 - SE 56 74 30 40 972.4 - -
19/06:23am -8.0 -23.1 -10.5 82 - SE 63 74 34 40 972.2 - -
19/06:01am -8.8 -20.7 -12.1 77 - E 46 65 25 35 972.7 - -
19/06:00am -8.3 -22.2 -12.6 71 - SE 56 76 30 41 972.8 - -
19/05:59am -8.4 -22.5 -12.5 72 - SE 57 76 31 41 972.6 - -
19/05:56am -8.1 -23.6 -11.4 77 - SE 65 76 35 41 972.2 - -
19/05:55am -7.6 -17.7 -10.9 77 - ESE 37 76 20 41 972.3 - -
19/05:54am -8.0 -17.2 -11.5 76 - ESE 32 50 17 27 972.4 - -
19/05:52am -8.1 -17.4 -12.4 71 - ESE 32 39 17 21 972.6 - -
19/05:30am -7.9 -21.9 -11.5 75 - SE 57 89 31 48 972.2 - -
19/05:01am -8.6 -22.5 -10.2 88 - SE 57 78 31 42 971.9 - -
19/05:00am -8.7 -22.6 -10.6 86 - SE 57 74 31 40 972.0 - -
19/04:30am -8.9 -23.6 -10.7 87 - SE 61 80 33 43 972.3 - -
19/04:04am -8.6 -23.3 -10.4 87 - SE 61 80 33 43 971.5 - -
19/04:00am -9.2 -25.0 -10.8 88 - SE 67 80 36 43 971.5 971.6 -
19/03:30am -9.3 -25.1 -10.4 92 - SE 67 87 36 47 971.3 - -
19/03:00am -9.5 -26.3 -10.8 90 - SE 72 96 39 52 970.7 - -
19/02:30am -9.8 -28.7 -11.4 88 - SE 83 104 45 56 969.6 - -
19/02:05am -10.0 -28.4 -11.6 88 - SE 80 98 43 53 970.4 - -
19/02:00am -10.3 -29.6 -11.8 89 - SE 85 98 46 53 970.0 - -
19/01:30am -10.8 -31.7 -12.0 91 - SE 93 117 50 63 968.9 - -
19/01:00am -10.9 -30.6 -12.2 90 - SE 87 106 47 57 969.1 969.2 -
19/12:30am -11.1 -31.6 -12.3 91 - SE 91 115 49 62 968.6 - -
19/12:12am -11.6 -33.9 -12.9 90 - SE 100 120 54 65 967.5 - -
19/12:10am -11.5 -29.2 -12.7 91 - ESE 76 107 41 58 968.2 - -
19/12:03am -11.4 -32.7 -12.6 91 - SE 95 117 51 63 968.0 - -
19/12:00am -11.6 -32.5 -13.0 89 - SE 93 109 50 59 967.9 - -
 
Date/Time
EST
Temp
°C
App
Temp
°C
Dew
Point
Rel
Hum
%
Delta-T
°C
Wind Press
QNH
hPa
Press
MSL
hPa
Rain
since 9 am
mm
Dir
 
Spd
km/h
Gust
km/h
Spd
kts
Gust
kts
18/11:30pm -11.6 -32.9 -13.0 89 - SE 95 117 51 63 967.7 - -
18/11:00pm -11.8 -33.7 -13.1 90 - SE 98 122 53 66 967.1 - -
18/10:30pm -12.1 -34.4 -13.3 91 - SE 100 130 54 70 966.4 - -
18/10:00pm -12.5 -35.2 -13.8 90 - SE 102 124 55 67 966.5 966.7 -
18/09:30pm -12.6 -35.3 -13.9 90 - SE 102 120 55 65 966.3 - -
18/09:00pm -13.0 -35.7 -14.4 89 - SE 102 126 55 68 966.1 - -
18/08:31pm -12.9 -36.4 -14.2 90 - SE 106 128 57 69 965.5 - -
18/08:30pm -12.9 -36.4 -14.2 90 - SE 106 120 57 65 965.6 - -
18/08:00pm -12.9 -36.0 -14.2 90 - SE 104 128 56 69 965.1 - -
18/07:30pm -12.9 -36.6 -14.2 90 - SE 107 130 58 70 964.7 - -
18/07:00pm -13.2 -36.7 -14.5 90 - SE 106 128 57 69 964.8 965.0 -
18/06:30pm -13.6 -37.7 -14.9 90 - SE 109 139 59 75 964.6 - -
18/06:00pm -13.8 -38.3 -15.1 90 - SE 111 137 60 74 964.1 - -
18/05:30pm -13.8 -38.3 -15.1 90 - SE 111 132 60 71 964.4 - -
18/05:00pm -14.4 -39.7 -15.9 88 - SE 115 133 62 72 964.6 - -
18/04:30pm -14.1 -39.3 -15.5 89 - SE 115 137 62 74 964.1 - -
18/04:00pm -14.0 -38.5 -15.3 90 - SE 111 135 60 73 964.4 964.6 -
18/03:30pm -14.3 -39.2 -15.7 89 - SE 113 133 61 72 964.5 - -
18/03:00pm -14.8 -40.8 -16.2 89 - SE 119 143 64 77 964.4 - -
18/02:30pm -15.5 -42.2 -17.2 87 - SE 122 145 66 78 964.0 - -
18/02:00pm -15.8 -42.1 -17.5 87 - SE 120 148 65 80 964.2 - -
18/01:30pm -16.1 -41.8 -17.8 87 - SE 117 146 63 79 965.0 - -
18/01:00pm -15.9 -40.9 -17.6 87 - SE 113 132 61 71 965.5 965.7 -
18/12:32pm -15.8 -40.8 -17.5 87 - SE 113 135 61 73 965.6 - -
18/12:30pm -15.7 -41.0 -17.2 88 - SE 115 132 62 71 965.4 - -
18/12:02pm -15.6 -39.2 -17.3 87 - SE 106 126 57 68 966.3 - -
18/12:00pm -15.8 -39.4 -17.6 86 - SE 106 122 57 66 966.7 - -
18/11:30am -15.8 -37.9 -17.3 88 - SE 98 119 53 64 967.9 - -
18/11:00am -16.1 -38.2 -17.8 87 - SE 98 119 53 64 968.9 - -
18/10:30am -16.3 -39.6 -17.9 87 - SE 104 124 56 67 968.4 - -
18/10:03am -16.6 -38.4 -18.4 86 - SE 96 115 52 62 968.4 - -
18/10:00am -16.5 -38.3 -18.3 86 - SE 96 113 52 61 968.8 968.9 -
18/09:30am -16.4 -37.6 -18.3 85 - SE 93 111 50 60 970.3 - -
18/09:02am -16.0 -37.6 -18.3 82 - SE 95 113 51 61 970.6 - -
18/09:00am -16.4 -37.6 -18.7 82 - SE 93 109 50 59 970.9 - -
18/08:30am -16.2 -36.6 -18.5 82 - SE 89 109 48 59 971.4 - -
18/08:00am -16.3 -37.1 -18.5 83 - SE 91 111 49 60 970.7 - -
18/07:30am -16.1 -36.5 -18.4 82 - SE 89 109 48 59 971.0 - -
18/07:02am -15.9 -35.6 -18.2 82 - SE 85 104 46 56 970.9 - -
18/07:00am -15.9 -35.9 -18.2 82 - SE 87 104 47 56 970.7 970.8 -
18/06:30am -15.6 -36.0 -18.4 79 - SE 89 109 48 59 970.8 - -
18/06:05am -15.9 -36.3 -18.4 81 - SE 89 107 48 58 970.4 - -
18/06:00am -15.9 -36.3 -18.4 81 - SE 89 102 48 55 970.4 - -
18/05:30am -15.9 -36.7 -18.4 81 - SE 91 106 49 57 970.8 - -
18/05:00am -15.7 -36.2 -19.1 75 - SE 89 107 48 58 970.6 - -
18/04:57am -15.5 -36.0 -19.2 73 - SE 89 107 48 58 970.5 - -
18/04:30am -16.0 -36.1 -19.1 77 - SE 87 100 47 54 970.9 - -
18/04:00am -16.3 -35.1 -19.5 76 - SE 80 95 43 51 971.1 971.2 -
18/03:30am -16.5 -34.5 -19.4 78 - SE 76 95 41 51 971.3 - -
18/03:00am -16.4 -34.4 -19.9 74 - SE 76 96 41 52 971.9 - -
18/02:43am -16.9 -35.3 -20.6 73 - SE 78 96 42 52 971.8 - -
18/02:30am -16.7 -35.5 -20.7 71 - SE 80 95 43 51 971.7 - -
18/02:20am -17.1 -35.2 -20.9 72 - SE 76 95 41 51 971.4 - -
18/02:00am -17.0 -35.5 -21.6 67 - SE 78 95 42 51 971.7 - -
18/01:30am -16.9 -35.7 -21.9 65 - SE 80 95 43 51 972.0 - -
18/01:16am -16.7 -35.5 -21.9 64 - SE 80 98 43 53 971.9 - -
18/01:00am -16.7 -36.5 -21.9 64 - SE 85 96 46 52 971.8 971.9 -
18/12:30am -16.7 -35.9 -21.0 69 - SE 82 96 44 52 971.9 - -
18/12:00am -17.0 -35.4 -21.1 70 - SE 78 95 42 51 972.1 - -
 
Date/Time
EST
Temp
°C
App
Temp
°C
Dew
Point
Rel
Hum
%
Delta-T
°C
Wind Press
QNH
hPa
Press
MSL
hPa
Rain
since 9 am
mm
Dir
 
Spd
km/h
Gust
km/h
Spd
kts
Gust
kts
17/11:35pm -17.2 -35.3 -21.0 72 - SE 76 95 41 51 972.3 - -
17/11:30pm -17.3 -35.4 -21.0 73 - SE 76 89 41 48 972.4 - -
17/11:00pm -17.0 -33.9 -20.7 73 - SE 70 89 38 48 972.8 - -
17/10:30pm -16.6 -32.2 -20.6 71 - SE 63 85 34 46 973.6 - -
17/10:22pm -16.6 -32.5 -20.3 73 - SE 65 83 35 45 973.6 - -
17/10:12pm -16.8 -32.7 -20.0 76 - SE 65 80 35 43 973.8 - -
17/10:08pm -16.3 -28.0 -19.4 77 - SE 43 69 23 37 974.0 - -
17/10:00pm -16.8 -33.1 -19.7 78 - SE 67 85 36 46 973.5 973.6 -
17/09:30pm -16.9 -32.8 -20.4 74 - SE 65 87 35 47 973.5 - -
17/09:00pm -16.0 -31.9 -19.2 76 - SE 65 83 35 45 973.4 - -
17/08:30pm -16.6 -32.6 -21.4 66 - SE 65 83 35 45 973.7 - -

Other Formats:

Comma delimited format used in spreadsheet applications
http://www.bom.gov.au/fwo/IDT60803/IDT60803.89564.axf

JavaScript Object Notation format (JSON) in row-major order
http://www.bom.gov.au/fwo/IDT60803/IDT60803.89564.json